createdAt,value
2018-04-13T00:00:35.497Z,88.52
2018-04-13T00:03:01.468Z,88.28
2018-04-13T00:05:27.248Z,88.22
2018-04-13T00:07:53.061Z,88.37
2018-04-13T00:10:18.871Z,88.19
2018-04-13T00:12:44.649Z,88.75
2018-04-13T00:15:10.446Z,88.88
2018-04-13T00:17:36.262Z,89.32
2018-04-13T00:20:02.066Z,88.96
2018-04-13T00:22:27.857Z,89.59
2018-04-13T00:24:53.769Z,89.05
2018-04-13T00:27:19.566Z,89.66
2018-04-13T00:29:45.353Z,88.97
2018-04-13T00:32:11.179Z,88.55
2018-04-13T00:34:36.970Z,88.99
2018-04-13T00:37:02.772Z,89.21
2018-04-13T00:39:28.570Z,88.47
2018-04-13T00:41:54.364Z,88.42
2018-04-13T00:44:20.477Z,88.50
2018-04-13T00:46:46.278Z,88.58
2018-04-13T00:49:12.069Z,88.73
2018-04-13T00:51:37.865Z,88.93
2018-04-13T00:54:03.678Z,89.13
2018-04-13T00:56:29.460Z,88.86
2018-04-13T00:58:55.246Z,88.82
2018-04-13T01:01:21.058Z,88.86
2018-04-13T01:03:46.848Z,88.78
2018-04-13T01:06:12.653Z,89.02
2018-04-13T01:08:38.474Z,89.00
2018-04-13T01:11:04.312Z,89.16
2018-04-13T01:13:30.081Z,88.96
2018-04-13T01:15:55.898Z,88.77
2018-04-13T01:18:21.673Z,88.85
2018-04-13T01:20:47.462Z,88.87
2018-04-13T01:23:13.263Z,89.02
2018-04-13T01:25:39.188Z,89.22
2018-04-13T01:28:04.978Z,88.98
2018-04-13T01:30:30.774Z,89.20
2018-04-13T01:32:56.573Z,89.10
2018-04-13T01:35:22.369Z,88.97
2018-04-13T01:37:48.383Z,89.01
2018-04-13T01:40:14.161Z,89.24
2018-04-13T01:42:39.971Z,88.77
2018-04-13T01:45:06.254Z,88.77
2018-04-13T01:47:32.038Z,88.61
2018-04-13T01:49:57.845Z,89.31
2018-04-13T01:52:23.657Z,89.29
2018-04-13T01:54:49.449Z,89.63
2018-04-13T01:57:15.251Z,89.12
2018-04-13T01:59:41.453Z,89.68
2018-04-13T02:02:07.242Z,89.43
2018-04-13T02:04:33.037Z,90.14
2018-04-13T02:06:58.856Z,90.15
2018-04-13T02:09:24.649Z,90.46
2018-04-13T02:11:50.429Z,90.54
2018-04-13T02:14:16.219Z,90.65
2018-04-13T02:16:42.050Z,90.28
2018-04-13T02:19:07.825Z,90.50
2018-04-13T02:21:33.612Z,90.94
2018-04-13T02:23:59.434Z,91.71
2018-04-13T02:26:25.220Z,92.21
2018-04-13T02:28:58.101Z,92.29
2018-04-13T02:31:24.263Z,92.63
2018-04-13T02:33:50.068Z,92.73
2018-04-13T02:36:15.863Z,92.85
2018-04-13T02:38:41.694Z,93.02
2018-04-13T02:41:07.491Z,93.58
2018-04-13T02:43:33.285Z,93.77
2018-04-13T02:45:59.085Z,93.76
2018-04-13T02:48:24.877Z,93.90
2018-04-13T02:50:50.656Z,93.84
2018-04-13T02:53:16.456Z,93.93
2018-04-13T02:55:42.237Z,94.06
2018-04-13T02:58:08.074Z,93.77
2018-04-13T03:00:33.875Z,93.77
2018-04-13T03:02:59.666Z,94.05
2018-04-13T03:05:25.493Z,94.34
2018-04-13T03:07:51.304Z,94.48
2018-04-13T03:10:17.099Z,94.59
2018-04-13T03:12:42.930Z,94.85
2018-04-13T03:15:08.718Z,94.56
2018-04-13T03:17:34.527Z,94.57
2018-04-13T03:20:00.340Z,94.62
2018-04-13T03:22:26.113Z,94.71
2018-04-13T03:24:51.890Z,95.01
2018-04-13T03:27:17.697Z,94.66
2018-04-13T03:29:43.486Z,94.49
2018-04-13T03:32:09.278Z,93.95
2018-04-13T03:34:35.090Z,94.08
2018-04-13T03:37:00.871Z,94.68
2018-04-13T03:39:26.669Z,94.60
2018-04-13T03:41:52.546Z,95.52
2018-04-13T03:44:18.345Z,95.17
2018-04-13T03:46:44.161Z,95.87
2018-04-13T03:49:09.955Z,95.31
2018-04-13T03:51:35.749Z,95.03
2018-04-13T03:54:01.586Z,95.11
2018-04-13T03:56:27.374Z,95.27
2018-04-13T03:58:53.168Z,95.23
2018-04-13T04:01:19.253Z,95.25
2018-04-13T04:03:45.074Z,95.23
2018-04-13T04:06:10.869Z,94.73
2018-04-13T04:08:37.001Z,94.82
2018-04-13T04:11:02.914Z,94.96
2018-04-13T04:13:28.660Z,95.16
2018-04-13T04:15:54.465Z,95.13
2018-04-13T04:18:20.249Z,95.31
2018-04-13T04:20:58.404Z,94.89
2018-04-13T04:23:36.784Z,95.01
2018-04-13T04:26:20.874Z,95.46
2018-04-13T04:28:46.690Z,95.08
2018-04-13T04:31:13.308Z,95.04
2018-04-13T04:33:39.112Z,95.40
2018-04-13T04:36:04.926Z,95.19
2018-04-13T04:38:30.709Z,95.25
2018-04-13T04:40:56.501Z,95.26
2018-04-13T04:43:22.304Z,94.77
2018-04-13T04:45:48.109Z,94.86
2018-04-13T04:48:13.905Z,94.51
2018-04-13T04:50:39.841Z,94.33
2018-04-13T04:53:05.632Z,94.15
2018-04-13T04:55:31.401Z,94.33
2018-04-13T04:57:57.220Z,94.83
2018-04-13T05:00:23.001Z,94.51
2018-04-13T05:02:48.796Z,94.30
2018-04-13T05:05:14.627Z,94.09
2018-04-13T05:07:40.425Z,94.26
2018-04-13T05:10:06.230Z,94.22
2018-04-13T05:12:32.037Z,93.94
2018-04-13T05:14:57.822Z,93.83
2018-04-13T05:17:23.615Z,94.03
2018-04-13T05:19:49.404Z,93.88
2018-04-13T05:22:15.198Z,94.03
2018-04-13T05:24:41.178Z,93.88
2018-04-13T05:27:06.981Z,93.92
2018-04-13T05:29:32.771Z,93.74
2018-04-13T05:31:58.602Z,95.12
2018-04-13T05:34:24.397Z,95.07
2018-04-13T05:36:50.194Z,91.14
2018-04-13T05:39:16.006Z,91.73
2018-04-13T05:41:41.785Z,92.37
2018-04-13T05:44:07.573Z,92.91
2018-04-13T05:46:33.565Z,93.21
2018-04-13T05:48:59.376Z,90.70
2018-04-13T05:51:25.169Z,91.52
2018-04-13T05:53:51.040Z,92.11
2018-04-13T05:56:16.793Z,92.51
2018-04-13T05:58:42.579Z,92.67
2018-04-13T06:01:08.564Z,92.63
2018-04-13T06:03:34.357Z,92.88
2018-04-13T06:06:00.164Z,92.77
2018-04-13T06:08:25.970Z,93.23
2018-04-13T06:10:51.749Z,93.21
2018-04-13T06:13:17.549Z,93.12
2018-04-13T06:15:43.329Z,92.94
2018-04-13T06:18:09.123Z,92.28
2018-04-13T06:20:34.952Z,92.94
2018-04-13T06:23:00.759Z,92.14
2018-04-13T06:25:26.538Z,94.72
2018-04-13T06:27:52.355Z,88.35
2018-04-13T06:30:18.204Z,87.77
2018-04-13T06:32:44.211Z,84.50
2018-04-13T06:35:10.029Z,84.42
2018-04-13T06:37:35.821Z,84.74
2018-04-13T06:40:01.620Z,82.73
2018-04-13T06:42:27.451Z,81.79
2018-04-13T06:44:53.252Z,82.40
2018-04-13T06:47:19.046Z,81.04
2018-04-13T06:49:44.830Z,81.02
2018-04-13T06:52:10.621Z,79.92
2018-04-13T06:54:36.435Z,78.25
2018-04-13T06:57:02.303Z,78.93
2018-04-13T06:59:28.118Z,80.62
2018-04-13T07:01:53.969Z,80.69
2018-04-13T07:04:19.767Z,78.75
2018-04-13T07:06:45.597Z,77.86
2018-04-13T07:09:11.410Z,80.31
2018-04-13T07:11:37.213Z,81.20
2018-04-13T07:14:03.022Z,79.69
2018-04-13T07:16:29.049Z,78.17
2018-04-13T07:18:54.840Z,78.62
2018-04-13T07:21:20.617Z,78.85
2018-04-13T07:23:46.699Z,76.75
2018-04-13T07:26:13.559Z,76.91
2018-04-13T07:28:39.353Z,78.85
2018-04-13T07:31:05.167Z,77.58
2018-04-13T07:33:31.242Z,79.13
2018-04-13T07:35:57.069Z,79.28
2018-04-13T07:38:24.803Z,79.94
2018-04-13T07:40:50.623Z,79.60
2018-04-13T07:43:16.425Z,76.53
2018-04-13T07:45:42.690Z,76.69
2018-04-13T07:48:08.380Z,75.11
2018-04-13T07:50:35.428Z,77.08
2018-04-13T07:53:01.401Z,75.62
2018-04-13T07:55:28.129Z,74.92
2018-04-13T07:57:54.536Z,75.61
2018-04-13T08:00:21.190Z,77.40
2018-04-13T08:02:47.041Z,76.08
2018-04-13T08:05:13.469Z,77.11
2018-04-13T08:07:39.818Z,78.71
2018-04-13T08:10:06.191Z,79.18
2018-04-13T08:12:32.463Z,79.85
2018-04-13T08:14:58.935Z,78.74
2018-04-13T08:17:25.645Z,75.76
2018-04-13T08:19:51.658Z,76.25
2018-04-13T08:22:17.939Z,77.08
2018-04-13T08:24:44.050Z,76.29
2018-04-13T08:27:09.894Z,77.44
2018-04-13T08:29:35.693Z,76.04
2018-04-13T08:32:01.524Z,75.72
2018-04-13T08:34:27.347Z,77.26
2018-04-13T08:36:53.149Z,76.14
2018-04-13T08:39:18.984Z,77.28
2018-04-13T08:41:44.791Z,76.77
2018-04-13T08:44:10.582Z,76.48
2018-04-13T08:46:36.389Z,72.77
2018-04-13T08:49:02.361Z,72.14
2018-04-13T08:51:28.050Z,73.49
2018-04-13T08:53:53.863Z,73.66
2018-04-13T08:56:19.677Z,74.27
2018-04-13T08:58:45.473Z,70.50
2018-04-13T09:01:11.638Z,70.15
2018-04-13T09:03:37.454Z,71.80
2018-04-13T09:06:03.281Z,70.98
2018-04-13T09:08:29.888Z,71.43
2018-04-13T09:10:55.677Z,70.75
2018-04-13T09:13:21.485Z,69.46
2018-04-13T09:15:47.413Z,69.73
2018-04-13T09:18:13.206Z,69.23
2018-04-13T09:20:39.017Z,69.13
2018-04-13T09:23:04.822Z,70.51
2018-04-13T09:25:30.625Z,70.88
2018-04-13T09:27:56.471Z,70.70
2018-04-13T09:30:22.237Z,71.04
2018-04-13T09:32:48.054Z,71.26
2018-04-13T09:35:13.899Z,70.49
2018-04-13T09:37:39.937Z,69.61
2018-04-13T09:40:05.852Z,68.78
2018-04-13T09:42:31.677Z,68.02
2018-04-13T09:44:57.492Z,67.18
2018-04-13T09:47:23.301Z,68.75
2018-04-13T09:49:49.110Z,69.50
2018-04-13T09:52:15.234Z,69.16
2018-04-13T09:54:41.055Z,68.57
2018-04-13T09:57:07.792Z,67.58
2018-04-13T09:59:33.813Z,68.84
2018-04-13T10:02:00.574Z,68.17
2018-04-13T10:04:32.554Z,69.08
2018-04-13T10:06:58.366Z,67.92
2018-04-13T10:09:24.201Z,68.36
2018-04-13T10:11:50.090Z,69.54
2018-04-13T10:14:15.924Z,70.08
2018-04-13T10:16:42.043Z,70.35
2018-04-13T10:19:07.860Z,68.52
2018-04-13T10:21:33.686Z,69.03
2018-04-13T10:23:59.556Z,70.89
2018-04-13T10:26:25.363Z,70.75
2018-04-13T10:28:51.227Z,70.28
2018-04-13T10:31:17.054Z,70.46
2018-04-13T10:33:42.894Z,71.11
2018-04-13T10:36:09.755Z,71.01
2018-04-13T10:38:35.591Z,70.13
2018-04-13T10:41:01.859Z,71.49
2018-04-13T10:43:27.752Z,72.20
2018-04-13T10:45:53.669Z,70.56
2018-04-13T10:48:19.582Z,70.87
2018-04-13T10:50:45.400Z,71.30
2018-04-13T10:53:11.201Z,71.83
2018-04-13T10:55:37.376Z,72.62
2018-04-13T10:58:03.184Z,73.20
2018-04-13T11:00:28.975Z,73.12
2018-04-13T11:02:54.797Z,73.26
2018-04-13T11:05:20.635Z,73.92
2018-04-13T11:07:46.445Z,77.22
2018-04-13T11:10:12.280Z,76.22
2018-04-13T11:12:38.114Z,78.45
2018-04-13T11:15:03.943Z,80.84
2018-04-13T11:17:29.782Z,81.81
2018-04-13T11:19:55.581Z,82.23
2018-04-13T11:22:21.378Z,82.47
2018-04-13T11:24:47.215Z,83.05
2018-04-13T11:27:13.017Z,84.58
2018-04-13T11:29:39.637Z,81.89
2018-04-13T11:32:05.488Z,83.82
2018-04-13T11:34:31.305Z,84.33
2018-04-13T11:36:57.127Z,86.28
2018-04-13T11:39:23.353Z,85.94
2018-04-13T11:41:49.159Z,84.24
2018-04-13T11:44:15.461Z,84.45
2018-04-13T11:46:41.281Z,85.57
2018-04-13T11:49:07.804Z,86.56
2018-04-13T11:51:33.877Z,84.91
2018-04-13T11:53:59.679Z,86.47
2018-04-13T11:56:25.702Z,87.71
2018-04-13T11:58:51.522Z,87.19
2018-04-13T12:01:17.667Z,86.94
2018-04-13T12:03:43.494Z,83.77
2018-04-13T12:06:09.310Z,84.48
2018-04-13T12:08:35.108Z,82.97
2018-04-13T12:11:00.925Z,83.67
2018-04-13T12:13:26.718Z,83.93
2018-04-13T12:15:52.586Z,83.28
2018-04-13T12:18:19.014Z,83.87
2018-04-13T12:20:44.861Z,84.93
2018-04-13T12:23:11.682Z,84.08
2018-04-13T12:25:37.504Z,82.90
2018-04-13T12:28:03.350Z,84.34
2018-04-13T12:30:29.166Z,84.55
2018-04-13T12:32:54.994Z,84.46
2018-04-13T12:35:20.803Z,85.08
2018-04-13T12:37:46.670Z,85.70
2018-04-13T12:40:12.477Z,85.71
2018-04-13T12:42:38.278Z,85.42
2018-04-13T12:45:04.833Z,85.70
2018-04-13T12:47:30.651Z,84.23
2018-04-13T12:49:56.465Z,84.30
2018-04-13T12:52:22.369Z,83.80
2018-04-13T12:54:48.370Z,81.88
2018-04-13T12:57:14.406Z,81.31
2018-04-13T12:59:40.300Z,83.24
2018-04-13T13:02:06.087Z,84.48
2018-04-13T13:04:31.887Z,85.33
2018-04-13T13:06:57.693Z,83.68
2018-04-13T13:09:23.487Z,82.46
2018-04-13T13:11:49.355Z,83.26
2018-04-13T13:14:15.149Z,84.34
2018-04-13T13:16:40.952Z,82.28
2018-04-13T13:19:06.743Z,81.88
2018-04-13T13:21:32.567Z,81.49
2018-04-13T13:23:58.744Z,81.62
2018-04-13T13:26:24.518Z,81.86
2018-04-13T13:28:50.315Z,82.34
2018-04-13T13:31:16.116Z,81.46
2018-04-13T13:33:41.907Z,81.69
2018-04-13T13:36:07.694Z,78.62
2018-04-13T13:38:33.544Z,78.20
2018-04-13T13:40:59.333Z,78.74
2018-04-13T13:43:25.143Z,79.64
2018-04-13T13:45:50.925Z,79.74
2018-04-13T13:48:16.718Z,79.21
2018-04-13T13:50:42.540Z,79.17
2018-04-13T13:53:08.332Z,79.38
2018-04-13T13:55:34.141Z,80.47
2018-04-13T13:57:59.942Z,79.99
2018-04-13T14:00:25.747Z,76.94
2018-04-13T14:02:51.574Z,75.78
2018-04-13T14:05:17.370Z,77.19
2018-04-13T14:07:43.150Z,78.72
2018-04-13T14:10:09.179Z,79.72
2018-04-13T14:12:34.962Z,80.71
2018-04-13T14:15:00.761Z,80.78
2018-04-13T14:17:26.602Z,80.60
2018-04-13T14:19:52.385Z,80.42
2018-04-13T14:22:18.195Z,79.79
2018-04-13T14:24:43.997Z,80.86
2018-04-13T14:27:09.798Z,80.28
2018-04-13T14:29:35.590Z,80.16
2018-04-13T14:32:01.404Z,79.54
2018-04-13T14:34:27.188Z,79.76
2018-04-13T14:36:52.987Z,80.36
2018-04-13T14:39:18.799Z,79.78
2018-04-13T14:41:44.592Z,79.94
2018-04-13T14:44:10.397Z,80.70
2018-04-13T14:46:36.198Z,79.04
2018-04-13T14:49:02.033Z,77.58
2018-04-13T14:51:27.818Z,77.44
2018-04-13T14:53:53.803Z,77.28
2018-04-13T14:56:19.605Z,77.11
2018-04-13T14:58:45.419Z,77.82
2018-04-13T15:01:11.221Z,76.62
2018-04-13T15:03:37.027Z,78.24
2018-04-13T15:06:02.829Z,76.72
2018-04-13T15:08:28.858Z,77.39
2018-04-13T15:10:54.658Z,76.75
2018-04-13T15:13:20.460Z,76.17
2018-04-13T15:15:46.386Z,75.13
2018-04-13T15:18:12.169Z,74.78
2018-04-13T15:20:37.957Z,74.74
2018-04-13T15:23:04.135Z,75.69
2018-04-13T15:25:29.969Z,75.86
2018-04-13T15:27:55.780Z,77.09
2018-04-13T15:30:21.799Z,77.23
2018-04-13T15:32:47.602Z,74.73
2018-04-13T15:35:13.397Z,73.89
2018-04-13T15:37:39.206Z,74.93
2018-04-13T15:40:05.024Z,75.60
2018-04-13T15:42:30.810Z,76.32
2018-04-13T15:44:56.625Z,75.22
2018-04-13T15:47:22.719Z,76.99
2018-04-13T15:49:48.505Z,76.96
2018-04-13T15:52:14.682Z,77.33
2018-04-13T15:54:40.474Z,78.22
2018-04-13T15:57:06.265Z,77.42
2018-04-13T15:59:32.058Z,78.71
2018-04-13T16:01:57.870Z,78.64
2018-04-13T16:04:23.655Z,78.81
2018-04-13T16:06:49.511Z,79.02
2018-04-13T16:09:15.275Z,79.34
2018-04-13T16:11:41.061Z,79.97
2018-04-13T16:14:06.874Z,79.93
2018-04-13T16:16:32.690Z,79.92
2018-04-13T16:18:58.485Z,79.77
2018-04-13T16:21:24.273Z,80.22
2018-04-13T16:23:50.073Z,80.12
2018-04-13T16:26:15.881Z,79.71
2018-04-13T16:28:41.660Z,80.19
2018-04-13T16:31:07.464Z,80.75
2018-04-13T16:33:33.254Z,80.79
2018-04-13T16:35:59.045Z,80.74
2018-04-13T16:38:24.868Z,80.39
2018-04-13T16:40:50.687Z,80.52
2018-04-13T16:43:16.530Z,80.82
2018-04-13T16:45:42.328Z,80.37
2018-04-13T16:48:08.112Z,80.55
2018-04-13T16:50:33.952Z,80.88
2018-04-13T16:53:00.061Z,80.53
2018-04-13T16:55:25.886Z,80.94
2018-04-13T16:57:51.721Z,81.47
2018-04-13T17:00:18.445Z,81.63
2018-04-13T17:02:44.246Z,82.57
2018-04-13T17:05:10.587Z,82.37
2018-04-13T17:07:36.432Z,82.65
2018-04-13T17:10:02.280Z,83.25
2018-04-13T17:12:28.089Z,83.79
2018-04-13T17:14:54.500Z,83.15
2018-04-13T17:17:20.327Z,83.49
2018-04-13T17:19:46.245Z,80.99
2018-04-13T17:22:12.076Z,81.41
2018-04-13T17:24:37.898Z,81.49
2018-04-13T17:27:03.844Z,80.66
2018-04-13T17:29:30.407Z,81.81
2018-04-13T17:31:56.370Z,81.78
2018-04-13T17:34:22.220Z,81.19
2018-04-13T17:36:48.041Z,82.95
2018-04-13T17:39:13.874Z,81.09
2018-04-13T17:41:39.721Z,80.79
2018-04-13T17:44:06.355Z,82.02
2018-04-13T17:46:32.176Z,83.07
2018-04-13T17:48:57.990Z,83.80
2018-04-13T17:51:23.805Z,83.80
2018-04-13T17:53:49.623Z,83.62
2018-04-13T17:56:15.449Z,83.20
2018-04-13T17:58:41.346Z,82.96
2018-04-13T18:01:07.298Z,83.42
2018-04-13T18:03:33.098Z,83.50
2018-04-13T18:05:58.903Z,84.18
2018-04-13T18:08:24.727Z,84.73
2018-04-13T18:10:50.551Z,82.36
2018-04-13T18:13:16.467Z,82.66
2018-04-13T18:15:42.285Z,82.61
2018-04-13T18:18:08.518Z,83.53
2018-04-13T18:20:34.320Z,84.14
2018-04-13T18:23:00.223Z,84.37
2018-04-13T18:25:26.034Z,85.44
2018-04-13T18:27:51.838Z,86.76
2018-04-13T18:30:17.633Z,87.08
2018-04-13T18:32:43.500Z,87.19
2018-04-13T18:35:09.764Z,86.14
2018-04-13T18:37:35.632Z,86.42
2018-04-13T18:40:01.454Z,86.81
2018-04-13T18:42:27.294Z,85.57
2018-04-13T18:44:54.099Z,84.84
2018-04-13T18:47:19.995Z,85.13
2018-04-13T18:49:46.233Z,83.96
2018-04-13T18:52:12.244Z,83.92
2018-04-13T18:54:38.331Z,83.58
2018-04-13T18:57:04.161Z,82.50
2018-04-13T18:59:29.973Z,84.08
2018-04-13T19:01:55.802Z,84.66
2018-04-13T19:04:21.602Z,84.46
2018-04-13T19:06:47.441Z,84.40
2018-04-13T19:09:13.547Z,85.29
2018-04-13T19:11:39.369Z,84.02
2018-04-13T19:14:05.262Z,85.07
2018-04-13T19:16:31.185Z,85.04
2018-04-13T19:18:57.761Z,85.77
2018-04-13T19:21:23.717Z,84.95
2018-04-13T19:23:49.571Z,84.67
2018-04-13T19:26:15.372Z,84.76
2018-04-13T19:28:41.208Z,84.27
2018-04-13T19:31:07.035Z,84.19
2018-04-13T19:33:33.553Z,84.73
2018-04-13T19:35:59.346Z,84.85
2018-04-13T19:38:25.147Z,85.61
2018-04-13T19:40:51.160Z,86.47
2018-04-13T19:43:17.360Z,86.53
2018-04-13T19:45:43.228Z,88.26
2018-04-13T19:48:09.066Z,87.29
2018-04-13T19:50:34.876Z,87.31
2018-04-13T19:53:00.696Z,87.11
2018-04-13T19:55:26.502Z,87.64
2018-04-13T19:57:52.325Z,87.95
2018-04-13T20:00:18.239Z,88.15
2018-04-13T20:02:44.064Z,88.10
2018-04-13T20:05:09.871Z,88.46
2018-04-13T20:07:35.704Z,88.56
2018-04-13T20:10:01.550Z,88.35
2018-04-13T20:12:27.341Z,88.10
2018-04-13T20:14:53.153Z,88.86
2018-04-13T20:19:51.569Z,88.21
2018-04-13T20:22:17.370Z,88.84
2018-04-13T20:24:43.151Z,87.68
2018-04-13T20:27:09.124Z,87.39
2018-04-13T20:29:34.960Z,88.01
2018-04-13T20:32:00.764Z,87.91
2018-04-13T20:34:26.680Z,88.78
2018-04-13T20:36:52.520Z,89.10
2018-04-13T20:39:18.366Z,88.89
2018-04-13T20:41:44.213Z,88.91
2018-04-13T20:44:10.075Z,88.14
2018-04-13T20:46:36.566Z,88.32
2018-04-13T20:49:02.768Z,89.26
2018-04-13T20:51:28.611Z,89.05
2018-04-13T20:53:54.701Z,93.50
2018-04-13T20:56:20.567Z,86.55
2018-04-13T20:58:46.730Z,87.07
2018-04-13T21:01:12.700Z,87.97
2018-04-13T21:03:38.576Z,88.23
2018-04-13T21:06:04.501Z,88.72
2018-04-13T21:08:30.353Z,89.22
2018-04-13T21:10:56.181Z,89.19
2018-04-13T21:13:21.998Z,89.74
2018-04-13T21:15:47.785Z,89.58
2018-04-13T21:18:13.569Z,89.53
2018-04-13T21:20:39.701Z,89.76
2018-04-13T21:23:05.498Z,90.44
2018-04-13T21:25:31.290Z,90.76
2018-04-13T21:27:57.096Z,90.32
2018-04-13T21:30:22.913Z,91.02
2018-04-13T21:32:48.689Z,90.85
2018-04-13T21:35:14.489Z,90.36
2018-04-13T21:37:40.300Z,90.57
2018-04-13T21:40:06.088Z,91.18
2018-04-13T21:42:31.940Z,93.21
2018-04-13T21:44:57.779Z,90.25
2018-04-13T21:47:23.571Z,89.06
2018-04-13T21:49:49.676Z,84.26
2018-04-13T21:52:15.443Z,86.95
2018-04-13T21:54:41.228Z,88.16
2018-04-13T21:57:07.033Z,88.94
2018-04-13T21:59:32.823Z,89.68
2018-04-13T22:01:58.611Z,89.67
2018-04-13T22:04:24.631Z,89.92
2018-04-13T22:06:50.435Z,89.77
2018-04-13T22:09:16.221Z,90.47
2018-04-13T22:11:42.037Z,90.90
2018-04-13T22:14:20.241Z,91.21
2018-04-13T22:16:46.051Z,91.41
2018-04-13T22:19:11.849Z,91.94
2018-04-13T22:21:37.639Z,91.85
2018-04-13T22:24:03.468Z,92.74
2018-04-13T22:26:29.270Z,92.89
2018-04-13T22:28:55.159Z,92.74
2018-04-13T22:31:20.961Z,92.86
2018-04-13T22:33:46.752Z,92.98
2018-04-13T22:36:12.534Z,92.82
2018-04-13T22:38:38.357Z,93.11
2018-04-13T22:41:04.179Z,92.90
2018-04-13T22:43:29.965Z,93.83
2018-04-13T22:45:55.767Z,93.21
2018-04-13T22:48:21.569Z,93.56
2018-04-13T22:50:47.370Z,93.69
2018-04-13T22:53:13.164Z,93.63
2018-04-13T22:55:38.971Z,93.20
2018-04-13T22:58:04.770Z,92.91
2018-04-13T23:00:30.561Z,92.92
2018-04-13T23:02:56.365Z,93.04
2018-04-13T23:05:22.153Z,93.34
2018-04-13T23:07:47.948Z,93.50
2018-04-13T23:10:13.787Z,93.22
2018-04-13T23:12:39.582Z,93.23
2018-04-13T23:15:05.383Z,93.19
2018-04-13T23:17:31.184Z,96.27
2018-04-13T23:19:56.966Z,89.95
2018-04-13T23:22:35.094Z,89.71
2018-04-13T23:25:00.889Z,93.12
2018-04-13T23:27:26.698Z,91.51
2018-04-13T23:29:52.492Z,91.86
2018-04-13T23:32:18.278Z,92.31
2018-04-13T23:34:44.097Z,92.47
2018-04-13T23:37:09.892Z,93.48
2018-04-13T23:39:35.667Z,89.26
2018-04-13T23:42:01.467Z,91.33
2018-04-13T23:44:27.265Z,91.76
2018-04-13T23:46:53.048Z,91.34
2018-04-13T23:49:18.848Z,91.04
2018-04-13T23:51:44.909Z,91.71
2018-04-13T23:54:10.701Z,92.14
2018-04-13T23:56:36.869Z,91.91
2018-04-13T23:59:02.686Z,91.96
